createdAt,value
2019-01-26T00:00:22.974Z,98.70
2019-01-26T00:02:56.636Z,98.70
2019-01-26T00:05:30.268Z,98.70
2019-01-26T00:08:04.006Z,98.80
2019-01-26T00:10:37.743Z,98.80
2019-01-26T00:13:11.604Z,98.80
2019-01-26T00:15:45.302Z,98.90
2019-01-26T00:18:18.994Z,98.80
2019-01-26T00:20:52.572Z,98.80
2019-01-26T00:23:26.202Z,98.80
2019-01-26T00:25:59.813Z,98.90
2019-01-26T00:28:33.520Z,98.90
2019-01-26T00:31:07.108Z,98.90
2019-01-26T00:33:43.210Z,98.90
2019-01-26T00:36:16.052Z,98.90
2019-01-26T00:38:49.676Z,98.90
2019-01-26T00:41:23.270Z,98.90
2019-01-26T00:43:57.004Z,98.90
2019-01-26T00:46:30.595Z,99.00
2019-01-26T00:49:04.446Z,99.00
2019-01-26T00:51:38.124Z,99.10
2019-01-26T00:54:11.838Z,99.00
2019-01-26T01:00:31.890Z,99.10
2019-01-26T01:03:05.550Z,99.10
2019-01-26T01:05:39.255Z,99.10
2019-01-26T01:08:12.837Z,99.20
2019-01-26T01:10:46.530Z,99.10
2019-01-26T01:16:56.782Z,98.90
2019-01-26T01:19:30.504Z,98.90
2019-01-26T01:22:04.234Z,99.10
2019-01-26T01:24:37.930Z,99.10
2019-01-26T01:27:11.582Z,99.00
2019-01-26T01:29:45.207Z,99.00
2019-01-26T01:32:18.856Z,98.90
2019-01-26T01:34:52.534Z,99.00
2019-01-26T01:37:26.277Z,98.90
2019-01-26T01:39:59.878Z,98.80
2019-01-26T01:42:33.581Z,98.80
2019-01-26T01:45:10.284Z,98.70
2019-01-26T01:47:44.233Z,98.70
2019-01-26T01:50:18.134Z,98.70
2019-01-26T01:52:51.821Z,98.70
2019-01-26T01:55:25.432Z,98.80
2019-01-26T01:57:59.020Z,98.40
2019-01-26T02:00:32.626Z,98.30
2019-01-26T02:03:06.284Z,98.30
2019-01-26T02:05:39.909Z,98.20
2019-01-26T02:08:13.500Z,98.00
2019-01-26T02:10:47.779Z,98.00
2019-01-26T02:13:21.372Z,98.00
2019-01-26T02:15:55.010Z,97.90
2019-01-26T02:18:28.734Z,98.00
2019-01-26T02:21:03.002Z,98.10
2019-01-26T02:23:37.276Z,98.20
2019-01-26T02:26:13.226Z,98.10
2019-01-26T02:28:46.916Z,98.10
2019-01-26T02:31:20.580Z,98.10
2019-01-26T02:33:54.287Z,98.10
2019-01-26T02:36:27.882Z,98.10
2019-01-26T02:39:01.547Z,97.90
2019-01-26T02:41:35.153Z,97.90
2019-01-26T02:44:08.948Z,97.80
2019-01-26T02:46:42.547Z,97.70
2019-01-26T02:49:16.148Z,97.70
2019-01-26T02:51:49.757Z,97.60
2019-01-26T02:54:23.343Z,97.60
2019-01-26T02:56:57.019Z,97.60
2019-01-26T02:59:30.557Z,97.50
2019-01-26T03:02:04.772Z,97.40
2019-01-26T03:04:38.403Z,97.30
2019-01-26T03:07:12.124Z,97.30
2019-01-26T03:09:45.759Z,97.20
2019-01-26T03:16:05.542Z,97.10
2019-01-26T03:18:39.131Z,97.10
2019-01-26T03:21:12.911Z,97.10
2019-01-26T03:23:46.605Z,97.20
2019-01-26T03:26:20.320Z,97.30
2019-01-26T03:32:31.141Z,97.20
2019-01-26T03:35:05.967Z,97.20
2019-01-26T03:37:39.725Z,97.10
2019-01-26T03:40:18.569Z,97.10
2019-01-26T03:42:52.289Z,97.20
2019-01-26T03:45:25.937Z,97.20
2019-01-26T03:47:59.608Z,97.20
2019-01-26T03:50:33.288Z,97.20
2019-01-26T03:53:06.973Z,97.10
2019-01-26T03:55:40.627Z,97.10
2019-01-26T03:58:14.256Z,97.00
2019-01-26T04:00:47.985Z,97.30
2019-01-26T04:03:21.612Z,97.10
2019-01-26T04:05:55.407Z,97.00
2019-01-26T04:08:29.073Z,97.00
2019-01-26T04:11:02.764Z,97.00
2019-01-26T04:13:36.343Z,96.90
2019-01-26T04:16:09.976Z,96.90
2019-01-26T04:18:43.706Z,96.90
2019-01-26T04:21:17.405Z,96.90
2019-01-26T04:23:50.988Z,96.80
2019-01-26T04:26:24.638Z,96.90
2019-01-26T04:28:58.212Z,96.80
2019-01-26T04:31:31.893Z,96.70
2019-01-26T04:34:05.573Z,96.60
2019-01-26T04:36:39.164Z,96.70
2019-01-26T04:39:12.861Z,96.60
2019-01-26T04:41:46.454Z,96.60
2019-01-26T04:44:20.050Z,96.50
2019-01-26T04:46:53.721Z,96.70
2019-01-26T04:49:27.482Z,96.50
2019-01-26T04:52:01.069Z,96.50
2019-01-26T04:54:34.702Z,96.50
2019-01-26T04:57:08.286Z,96.50
2019-01-26T04:59:41.904Z,96.40
2019-01-26T05:02:15.490Z,96.50
2019-01-26T05:04:49.106Z,96.80
2019-01-26T05:07:22.764Z,96.50
2019-01-26T05:09:56.398Z,96.50
2019-01-26T05:12:29.987Z,96.20
2019-01-26T05:15:04.704Z,96.20
2019-01-26T05:17:39.462Z,96.30
2019-01-26T05:20:16.311Z,96.30
2019-01-26T05:22:49.895Z,96.30
2019-01-26T05:25:23.612Z,96.40
2019-01-26T05:31:43.583Z,96.40
2019-01-26T05:34:17.472Z,96.50
2019-01-26T05:36:51.196Z,96.50
2019-01-26T05:39:24.778Z,96.40
2019-01-26T05:41:58.423Z,96.30
2019-01-26T05:48:18.019Z,96.30
2019-01-26T05:50:51.670Z,96.30
2019-01-26T05:53:25.369Z,96.20
2019-01-26T05:56:14.816Z,96.30
2019-01-26T05:58:48.400Z,96.20
2019-01-26T06:01:22.122Z,96.10
2019-01-26T06:03:55.787Z,96.10
2019-01-26T06:06:29.418Z,96.00
2019-01-26T06:09:04.728Z,95.80
2019-01-26T06:11:38.491Z,95.80
2019-01-26T06:14:12.148Z,95.80
2019-01-26T06:16:45.864Z,95.90
2019-01-26T06:19:19.591Z,96.00
2019-01-26T06:21:53.345Z,96.10
2019-01-26T06:24:26.944Z,96.10
2019-01-26T06:27:00.570Z,96.10
2019-01-26T06:29:34.164Z,96.10
2019-01-26T06:32:07.805Z,96.10
2019-01-26T06:34:41.401Z,96.10
2019-01-26T06:37:15.003Z,96.10
2019-01-26T06:39:48.636Z,96.20
2019-01-26T06:42:22.286Z,96.10
2019-01-26T06:44:55.985Z,96.20
2019-01-26T06:47:29.715Z,96.20
2019-01-26T06:50:04.305Z,96.10
2019-01-26T06:52:37.909Z,96.10
2019-01-26T06:55:12.545Z,96.10
2019-01-26T06:57:46.350Z,96.00
2019-01-26T07:00:22.849Z,95.90
2019-01-26T07:02:56.541Z,95.80
2019-01-26T07:05:34.524Z,95.90
2019-01-26T07:08:09.874Z,95.90
2019-01-26T07:10:43.587Z,95.80
2019-01-26T07:13:17.382Z,95.80
2019-01-26T07:15:51.913Z,95.70
2019-01-26T07:18:25.515Z,95.70
2019-01-26T07:20:59.185Z,95.80
2019-01-26T07:23:32.884Z,95.70
2019-01-26T07:26:06.484Z,95.70
2019-01-26T07:28:40.129Z,95.50
2019-01-26T07:31:13.773Z,95.30
2019-01-26T07:33:47.411Z,95.10
2019-01-26T07:36:21.010Z,95.10
2019-01-26T07:38:54.685Z,95.10
2019-01-26T07:41:28.301Z,94.80
2019-01-26T07:44:01.905Z,94.80
2019-01-26T07:46:35.619Z,94.50
2019-01-26T07:49:09.486Z,94.40
2019-01-26T07:51:43.215Z,94.20
2019-01-26T07:54:16.877Z,94.10
2019-01-26T07:56:50.475Z,94.00
2019-01-26T07:59:24.242Z,93.80
2019-01-26T08:01:57.952Z,93.90
2019-01-26T08:04:31.617Z,94.00
2019-01-26T08:07:05.355Z,93.80
2019-01-26T08:09:38.990Z,93.70
2019-01-26T08:12:12.578Z,93.20
2019-01-26T08:14:46.179Z,93.40
2019-01-26T08:17:19.823Z,93.30
2019-01-26T08:19:53.911Z,93.00
2019-01-26T08:22:27.609Z,92.90
2019-01-26T08:25:01.187Z,92.90
2019-01-26T08:27:34.910Z,93.00
2019-01-26T08:30:14.629Z,92.70
2019-01-26T08:32:48.688Z,92.60
2019-01-26T08:35:22.414Z,92.60
2019-01-26T08:37:56.159Z,92.10
2019-01-26T08:40:29.802Z,92.10
2019-01-26T08:43:03.539Z,91.90
2019-01-26T08:45:37.230Z,91.30
2019-01-26T08:48:10.899Z,91.40
2019-01-26T08:50:44.511Z,91.30
2019-01-26T08:53:18.179Z,91.10
2019-01-26T08:55:51.825Z,91.00
2019-01-26T08:58:25.419Z,91.10
2019-01-26T09:00:59.205Z,91.00
2019-01-26T09:03:34.489Z,90.40
2019-01-26T09:06:09.803Z,90.50
2019-01-26T09:08:43.555Z,90.60
2019-01-26T09:11:18.093Z,90.20
2019-01-26T09:13:51.792Z,90.20
2019-01-26T09:16:25.800Z,89.30
2019-01-26T09:18:59.446Z,89.10
2019-01-26T09:21:33.175Z,89.10
2019-01-26T09:24:06.958Z,89.40
2019-01-26T09:26:40.545Z,88.90
2019-01-26T09:29:14.251Z,88.90
2019-01-26T09:31:47.977Z,89.30
2019-01-26T09:34:21.585Z,89.60
2019-01-26T09:36:55.243Z,89.80
2019-01-26T09:39:28.824Z,90.00
2019-01-26T09:42:02.557Z,89.50
2019-01-26T09:44:36.293Z,89.50
2019-01-26T09:47:09.991Z,89.30
2019-01-26T09:49:43.596Z,89.70
2019-01-26T09:52:17.199Z,89.60
2019-01-26T09:54:50.809Z,89.60
2019-01-26T09:57:24.585Z,88.90
2019-01-26T09:59:58.175Z,89.40
2019-01-26T10:02:31.881Z,88.60
2019-01-26T10:05:08.216Z,88.70
2019-01-26T10:07:41.945Z,88.80
2019-01-26T10:10:17.516Z,88.70
2019-01-26T10:12:51.075Z,88.80
2019-01-26T10:15:29.917Z,88.70
2019-01-26T10:18:03.625Z,88.60
2019-01-26T10:20:39.581Z,89.00
2019-01-26T10:23:13.245Z,88.70
2019-01-26T10:25:48.845Z,88.70
2019-01-26T10:28:22.272Z,89.00
2019-01-26T10:30:59.162Z,88.90
2019-01-26T10:33:32.938Z,88.50
2019-01-26T10:36:08.230Z,88.00
2019-01-26T10:38:43.495Z,87.80
2019-01-26T10:41:18.794Z,88.00
2019-01-26T10:43:54.363Z,88.00
2019-01-26T10:46:28.035Z,88.20
2019-01-26T10:49:01.661Z,88.00
2019-01-26T10:51:35.405Z,88.10
2019-01-26T10:54:09.172Z,87.90
2019-01-26T10:56:43.092Z,88.40
2019-01-26T10:59:16.733Z,87.90
2019-01-26T11:01:50.615Z,88.10
2019-01-26T11:04:24.347Z,88.10
2019-01-26T11:06:57.990Z,88.00
2019-01-26T11:09:31.571Z,87.30
2019-01-26T11:12:05.258Z,87.50
2019-01-26T11:14:38.881Z,88.40
2019-01-26T11:17:12.519Z,87.40
2019-01-26T11:19:46.135Z,87.00
2019-01-26T11:22:19.731Z,86.90
2019-01-26T11:24:53.367Z,87.30
2019-01-26T11:27:26.985Z,86.80
2019-01-26T11:30:00.584Z,87.10
2019-01-26T11:32:34.303Z,87.00
2019-01-26T11:35:11.196Z,86.90
2019-01-26T11:37:44.806Z,87.60
2019-01-26T11:40:22.899Z,88.00
2019-01-26T11:42:56.685Z,87.30
2019-01-26T11:45:48.422Z,86.40
2019-01-26T11:48:26.454Z,86.60
2019-01-26T11:51:04.805Z,86.00
2019-01-26T11:53:38.508Z,86.40
2019-01-26T11:56:22.925Z,86.40
2019-01-26T11:58:56.570Z,86.50
2019-01-26T12:01:43.644Z,87.20
2019-01-26T12:04:18.905Z,88.20
2019-01-26T12:06:54.192Z,88.70
2019-01-26T12:09:27.897Z,88.90
2019-01-26T12:12:01.550Z,89.00
2019-01-26T12:14:35.194Z,89.60
2019-01-26T12:17:08.850Z,89.80
2019-01-26T12:19:42.458Z,89.60
2019-01-26T12:22:16.103Z,90.00
2019-01-26T12:24:49.818Z,90.10
2019-01-26T12:27:23.470Z,90.30
2019-01-26T12:29:57.099Z,90.50
2019-01-26T12:32:30.703Z,90.60
2019-01-26T12:35:07.553Z,90.70
2019-01-26T12:37:41.420Z,90.90
2019-01-26T12:40:15.579Z,90.90
2019-01-26T12:42:49.262Z,91.00
2019-01-26T12:45:23.344Z,90.90
2019-01-26T12:47:57.020Z,91.00
2019-01-26T12:50:30.649Z,91.30
2019-01-26T12:53:04.672Z,91.20
2019-01-26T12:55:38.470Z,91.00
2019-01-26T12:58:12.074Z,91.40
2019-01-26T13:00:45.774Z,91.40
2019-01-26T13:03:19.636Z,91.20
2019-01-26T13:05:53.367Z,91.10
2019-01-26T13:08:26.964Z,91.00
2019-01-26T13:11:03.802Z,91.00
2019-01-26T13:13:37.521Z,90.90
2019-01-26T13:16:11.180Z,91.00
2019-01-26T13:18:44.848Z,91.20
2019-01-26T13:21:20.663Z,90.80
2019-01-26T13:23:54.337Z,91.00
2019-01-26T13:26:27.973Z,91.20
2019-01-26T13:29:01.655Z,91.50
2019-01-26T13:31:35.377Z,91.40
2019-01-26T13:34:08.985Z,91.40
2019-01-26T13:36:42.661Z,91.30
2019-01-26T13:39:16.594Z,91.40
2019-01-26T13:41:50.619Z,91.50
2019-01-26T13:44:24.211Z,91.60
2019-01-26T13:46:57.988Z,91.70
2019-01-26T13:49:31.673Z,91.90
2019-01-26T13:52:05.861Z,92.10
2019-01-26T13:54:39.673Z,92.10
2019-01-26T13:57:13.459Z,92.00
2019-01-26T13:59:48.197Z,91.90
2019-01-26T14:05:53.647Z,92.10
2019-01-26T14:08:27.284Z,91.80
2019-01-26T14:11:02.797Z,91.80
2019-01-26T14:13:38.139Z,91.90
2019-01-26T14:16:12.047Z,91.70
2019-01-26T14:18:45.775Z,91.50
2019-01-26T14:21:19.559Z,91.50
2019-01-26T14:23:53.310Z,91.70
2019-01-26T14:26:26.892Z,91.50
2019-01-26T14:29:00.793Z,91.60
2019-01-26T14:31:34.663Z,91.70
2019-01-26T14:34:11.378Z,91.70
2019-01-26T14:36:45.481Z,91.80
2019-01-26T14:39:19.185Z,92.10
2019-01-26T14:41:53.138Z,92.50
2019-01-26T14:44:27.024Z,92.60
2019-01-26T14:47:00.966Z,92.70
2019-01-26T14:49:34.636Z,92.80
2019-01-26T14:52:08.452Z,93.00
2019-01-26T14:54:42.224Z,92.90
2019-01-26T14:57:16.168Z,93.00
2019-01-26T14:59:49.801Z,93.00
2019-01-26T15:02:23.401Z,93.20
2019-01-26T15:04:57.196Z,93.10
2019-01-26T15:07:30.853Z,93.20
2019-01-26T15:10:07.522Z,93.20
2019-01-26T15:12:42.774Z,93.20
2019-01-26T15:15:19.490Z,93.20
2019-01-26T15:17:53.345Z,93.40
2019-01-26T15:20:35.995Z,93.40
2019-01-26T15:23:10.401Z,93.50
2019-01-26T15:25:44.043Z,93.50
2019-01-26T15:28:17.957Z,93.60
2019-01-26T15:34:28.908Z,93.80
2019-01-26T15:37:02.513Z,93.80
2019-01-26T15:39:36.111Z,93.90
2019-01-26T15:42:09.952Z,94.30
2019-01-26T15:44:43.616Z,94.10
2019-01-26T15:51:03.637Z,94.20
2019-01-26T15:53:37.224Z,94.20
2019-01-26T15:56:11.160Z,94.30
2019-01-26T15:58:44.747Z,94.30
2019-01-26T16:01:18.686Z,94.40
2019-01-26T16:03:52.335Z,94.50
2019-01-26T16:06:26.116Z,94.50
2019-01-26T16:09:00.099Z,94.60
2019-01-26T16:11:33.986Z,94.70
2019-01-26T16:14:07.651Z,94.80
2019-01-26T16:16:41.375Z,94.60
2019-01-26T16:19:15.204Z,95.10
2019-01-26T16:21:48.925Z,95.20
2019-01-26T16:24:22.711Z,95.30
2019-01-26T16:26:56.421Z,95.30
2019-01-26T16:29:31.575Z,95.40
2019-01-26T16:32:05.767Z,95.50
2019-01-26T16:34:39.377Z,95.60
2019-01-26T16:37:13.007Z,95.60
2019-01-26T16:39:46.687Z,95.70
2019-01-26T16:42:21.955Z,95.60
2019-01-26T16:44:55.539Z,95.50
2019-01-26T16:47:29.845Z,95.60
2019-01-26T16:50:04.527Z,95.60
2019-01-26T16:52:38.264Z,95.40
2019-01-26T16:55:15.596Z,95.30
2019-01-26T16:57:49.190Z,95.30
2019-01-26T17:00:40.644Z,95.40
2019-01-26T17:03:14.412Z,95.40
2019-01-26T17:05:48.073Z,95.40
2019-01-26T17:08:21.838Z,95.40
2019-01-26T17:10:55.500Z,95.40
2019-01-26T17:13:29.267Z,95.40
2019-01-26T17:19:39.960Z,95.40
2019-01-26T17:22:13.627Z,95.30
2019-01-26T17:24:47.428Z,95.30
2019-01-26T17:27:21.014Z,95.40
2019-01-26T17:29:54.733Z,95.40
2019-01-26T17:36:14.334Z,95.40
2019-01-26T17:38:47.927Z,95.40
2019-01-26T17:41:21.655Z,95.40
2019-01-26T17:43:55.251Z,95.40
2019-01-26T17:46:28.915Z,95.40
2019-01-26T17:49:02.533Z,95.50
2019-01-26T17:51:36.282Z,95.50
2019-01-26T17:54:09.952Z,95.50
2019-01-26T17:56:43.749Z,95.50
2019-01-26T17:59:17.349Z,95.50
2019-01-26T18:01:51.124Z,95.60
2019-01-26T18:04:24.729Z,95.60
2019-01-26T18:06:58.368Z,95.50
2019-01-26T18:09:31.956Z,95.60
2019-01-26T18:12:05.944Z,95.60
2019-01-26T18:14:39.560Z,95.60
2019-01-26T18:17:13.309Z,95.50
2019-01-26T18:19:46.950Z,95.60
2019-01-26T18:22:20.578Z,95.50
2019-01-26T18:24:54.272Z,95.60
2019-01-26T18:27:27.857Z,95.50
2019-01-26T18:30:01.692Z,95.50
2019-01-26T18:32:35.350Z,95.50
2019-01-26T18:35:12.166Z,95.40
2019-01-26T18:37:45.829Z,95.40
2019-01-26T18:40:27.184Z,95.20
2019-01-26T18:43:00.778Z,95.20
2019-01-26T18:45:34.631Z,95.00
2019-01-26T18:48:08.417Z,94.80
2019-01-26T18:50:45.090Z,94.60
2019-01-26T18:53:18.718Z,94.70
2019-01-26T18:55:52.308Z,94.70
2019-01-26T18:58:25.948Z,94.80
2019-01-26T19:00:59.647Z,94.50
2019-01-26T19:03:44.970Z,94.70
2019-01-26T19:06:18.587Z,94.70
2019-01-26T19:08:52.317Z,94.70
2019-01-26T19:11:25.984Z,94.60
2019-01-26T19:13:59.702Z,94.40
2019-01-26T19:20:20.290Z,94.50
2019-01-26T19:22:53.897Z,94.20
2019-01-26T19:25:27.676Z,94.20
2019-01-26T19:28:01.488Z,94.20
2019-01-26T19:30:36.713Z,94.20
2019-01-26T19:36:57.028Z,94.30
2019-01-26T19:39:30.680Z,94.20
2019-01-26T19:42:04.750Z,94.40
2019-01-26T19:44:38.350Z,94.40
2019-01-26T19:47:12.094Z,94.40
2019-01-26T19:49:45.838Z,94.00
2019-01-26T19:52:19.815Z,93.70
2019-01-26T19:54:53.471Z,93.70
2019-01-26T19:57:27.254Z,93.50
2019-01-26T20:00:00.842Z,93.40
2019-01-26T20:02:34.852Z,93.40
2019-01-26T20:05:11.710Z,93.40
2019-01-26T20:07:45.682Z,93.60
2019-01-26T20:10:20.010Z,93.60
2019-01-26T20:12:53.796Z,93.60
2019-01-26T20:15:27.736Z,93.50
2019-01-26T20:18:01.452Z,93.60
2019-01-26T20:20:39.474Z,93.60
2019-01-26T20:23:13.260Z,93.90
2019-01-26T20:25:47.000Z,94.50
2019-01-26T20:28:20.737Z,94.40
2019-01-26T20:30:54.348Z,94.60
2019-01-26T20:33:28.042Z,94.70
2019-01-26T20:36:01.650Z,94.80
2019-01-26T20:38:35.398Z,95.00
2019-01-26T20:41:09.164Z,95.10
2019-01-26T20:43:42.834Z,95.20
2019-01-26T20:46:16.600Z,95.30
2019-01-26T20:48:50.284Z,95.40
2019-01-26T20:51:24.989Z,95.40
2019-01-26T20:53:58.981Z,95.50
2019-01-26T20:56:32.728Z,95.50
2019-01-26T20:59:06.585Z,95.40
2019-01-26T21:01:40.310Z,95.70
2019-01-26T21:04:13.994Z,95.50
2019-01-26T21:06:47.634Z,95.50
2019-01-26T21:09:21.316Z,95.60
2019-01-26T21:11:55.055Z,95.60
2019-01-26T21:14:28.637Z,95.60
2019-01-26T21:20:39.406Z,95.70
2019-01-26T21:23:13.072Z,95.80
2019-01-26T21:25:46.791Z,95.80
2019-01-26T21:28:20.554Z,95.90
2019-01-26T21:30:54.249Z,96.10
2019-01-26T21:37:14.216Z,96.10
2019-01-26T21:39:47.833Z,96.10
2019-01-26T21:42:21.503Z,96.20
2019-01-26T21:44:55.107Z,96.30
2019-01-26T21:47:28.827Z,96.40
2019-01-26T21:50:02.511Z,96.40
2019-01-26T21:52:40.918Z,96.40
2019-01-26T21:55:11.817Z,96.40
2019-01-26T21:57:45.515Z,96.30
2019-01-26T22:00:21.413Z,96.30
2019-01-26T22:02:55.187Z,96.30
2019-01-26T22:05:28.791Z,96.40
2019-01-26T22:08:02.875Z,96.40
2019-01-26T22:10:36.534Z,96.40
2019-01-26T22:13:10.169Z,96.40
2019-01-26T22:15:43.761Z,96.50
2019-01-26T22:18:17.475Z,96.50
2019-01-26T22:20:51.148Z,96.60
2019-01-26T22:23:24.883Z,96.60
2019-01-26T22:25:58.554Z,96.70
2019-01-26T22:28:32.228Z,96.60
2019-01-26T22:31:05.898Z,96.60
2019-01-26T22:33:39.560Z,96.70
2019-01-26T22:36:13.149Z,96.80
2019-01-26T22:38:46.931Z,96.70
2019-01-26T22:41:20.516Z,96.80
2019-01-26T22:43:54.349Z,96.80
2019-01-26T22:46:27.944Z,96.70
2019-01-26T22:49:01.590Z,96.80
2019-01-26T22:51:35.336Z,96.90
2019-01-26T22:54:08.941Z,96.90
2019-01-26T22:56:42.655Z,97.00
2019-01-26T22:59:16.259Z,97.00
2019-01-26T23:01:50.423Z,97.00
2019-01-26T23:04:27.077Z,97.10
2019-01-26T23:07:09.947Z,97.10
2019-01-26T23:09:46.995Z,97.20
2019-01-26T23:12:32.388Z,97.20
2019-01-26T23:15:27.218Z,97.50
2019-01-26T23:21:55.449Z,97.20
2019-01-26T23:24:41.239Z,97.20
2019-01-26T23:27:20.479Z,97.60
2019-01-26T23:30:19.356Z,97.30
2019-01-26T23:32:52.959Z,97.40
2019-01-26T23:35:26.585Z,97.50
2019-01-26T23:38:00.277Z,97.60
2019-01-26T23:40:33.890Z,97.60
2019-01-26T23:43:07.501Z,97.70
2019-01-26T23:45:41.224Z,97.70
2019-01-26T23:48:14.853Z,97.70
2019-01-26T23:50:48.444Z,97.70
2019-01-26T23:53:22.149Z,97.70
2019-01-26T23:55:55.814Z,97.80
2019-01-26T23:58:29.517Z,97.80
